Terminal Aerodrome Forecast
Issued by NWS Greer, SC

Home | Current Version | Previous Version | Text Only | Print | Product List | Glossary On
Versions: 1 2 3 4 5 6 7 8 9 10 11 12 13 14 15 16 17
000
FTUS42 KGSP 270535
TAFAVL
TAF
KAVL 270535Z 2706/2806 34003KT P6SM SCT050 BKN250
     FM271700 32011KT P6SM BKN050 PROB30 2718/2724 4SM -TSRA
      OVC035CB
     FM280000 32005KT P6SM BKN050 PROB30 2800/2806 4SM -TSRA BR
      OVC025CB=

USA.gov is the U.S. government's official web portal to all federal, state and local government web resources and services.